Time;durP1;ratioP1;P1;durP2;ratioP2;P2;SDS_P1;SDS_P2;PMS_P1;PMS_P2;Temp;Humidity;BMP_temperature;BMP_pressure;BME280_temperature;BME280_humidity;BME280_pressure;Samples;Min_cycle;Max_cycle;Signal;HPM_P1;HPM_P2
2022/05/28 00:01:15;;;;;;;6.67;2.70;;;20.80;97.00;;;;;;5065112;28;20195;-74
2022/05/28 00:03:42;;;;;;;5.43;2.37;;;20.80;96.60;;;;;;5071463;28;20197;-73
2022/05/28 00:06:21;;;;;;;9.33;2.43;;;20.80;96.60;;;;;;5076119;28;20183;-73
2022/05/28 00:08:49;;;;;;;6.07;2.20;;;20.80;96.70;;;;;;5070894;28;20197;-73
2022/05/28 00:11:24;;;;;;;11.50;2.60;;;20.80;97.00;;;;;;5084643;28;21014;-72
2022/05/28 00:13:51;;;;;;;9.17;2.67;;;20.80;96.80;;;;;;5076378;28;20308;-71
2022/05/28 00:16:19;;;;;;;8.27;2.33;;;20.80;96.60;;;;;;5054466;28;20196;-71
2022/05/28 00:18:49;;;;;;;7.30;2.50;;;20.80;96.60;;;;;;5070706;28;20266;-74
2022/05/28 00:21:16;;;;;;;7.00;2.73;;;20.80;96.60;;;;;;5064046;28;21012;-72
2022/05/28 00:23:46;;;;;;;10.67;2.70;;;20.70;96.30;;;;;;5056840;28;20275;-72
2022/05/28 00:26:14;;;;;;;6.17;2.30;;;20.70;96.40;;;;;;5077917;28;20178;-71
2022/05/28 00:28:45;;;;;;;7.27;2.53;;;20.70;96.40;;;;;;5078712;28;20201;-73
2022/05/28 00:31:13;;;;;;;8.30;2.70;;;20.70;96.40;;;;;;5051141;28;20182;-72
2022/05/28 00:33:40;;;;;;;8.80;2.50;;;20.70;96.40;;;;;;5070887;28;20217;-72
2022/05/28 00:36:10;;;;;;;9.17;2.47;;;20.70;96.60;;;;;;5059111;28;20188;-72
2022/05/28 00:38:39;;;;;;;6.70;2.40;;;20.70;96.50;;;;;;5054031;28;21000;-73
2022/05/28 00:41:06;;;;;;;9.50;2.47;;;20.70;96.60;;;;;;5086949;28;20186;-72
2022/05/28 00:43:33;;;;;;;5.50;2.37;;;20.70;96.40;;;;;;5068310;28;20198;-71
2022/05/28 00:46:09;;;;;;;8.07;2.23;;;20.60;96.40;;;;;;5078150;28;20185;-73
2022/05/28 00:48:40;;;;;;;8.10;3.03;;;20.60;96.50;;;;;;5049017;28;20267;-72
2022/05/28 00:51:36;;;;;;;4.60;2.10;;;20.60;96.50;;;;;;5061478;28;20197;-72
2022/05/28 00:54:06;;;;;;;4.97;2.40;;;20.60;96.50;;;;;;5064083;28;20232;-72
2022/05/28 00:56:33;;;;;;;6.17;2.47;;;20.60;96.50;;;;;;5093575;28;20182;-72
2022/05/28 00:59:01;;;;;;;5.77;2.37;;;20.60;96.50;;;;;;5073335;28;20190;-74
2022/05/28 01:01:31;;;;;;;8.43;2.40;;;20.60;96.50;;;;;;5068911;28;20739;-72
2022/05/28 01:04:34;;;;;;;10.90;2.87;;;20.60;96.50;;;;;;5065065;28;20198;-72
2022/05/28 01:07:21;;;;;;;10.17;2.83;;;20.70;97.00;;;;;;5092174;28;20193;-74
2022/05/28 01:10:29;;;;;;;8.57;2.40;;;20.60;96.70;;;;;;5095625;28;20205;-73
2022/05/28 01:13:34;;;;;;;8.30;2.40;;;20.70;96.80;;;;;;5057362;28;20222;-74
2022/05/28 01:16:18;;;;;;;7.77;2.60;;;20.70;96.70;;;;;;5032163;28;20197;-71
2022/05/28 01:18:54;;;;;;;8.37;2.70;;;20.70;96.60;;;;;;5062700;28;20236;-74
2022/05/28 01:21:56;;;;;;;11.03;2.90;;;20.70;96.60;;;;;;5063332;28;20193;-73
2022/05/28 01:25:12;;;;;;;7.93;2.30;;;20.70;96.50;;;;;;5058848;28;20182;-72
2022/05/28 01:27:50;;;;;;;6.50;2.50;;;20.70;96.40;;;;;;5052239;28;20630;-71
2022/05/28 01:30:19;;;;;;;8.97;3.00;;;20.70;96.30;;;;;;5062310;28;20603;-72
2022/05/28 01:33:03;;;;;;;6.63;3.00;;;20.70;96.40;;;;;;5072294;28;20301;-71
2022/05/28 01:35:34;;;;;;;9.63;2.77;;;20.80;96.40;;;;;;5089633;28;20189;-71
2022/05/28 01:38:02;;;;;;;8.73;2.50;;;20.70;96.40;;;;;;5096147;28;20182;-73
2022/05/28 01:40:30;;;;;;;9.57;2.63;;;20.70;96.60;;;;;;5104671;28;20182;-73
2022/05/28 01:43:02;;;;;;;7.80;2.87;;;20.70;96.80;;;;;;5073613;28;20210;-72
2022/05/28 01:45:32;;;;;;;7.33;2.70;;;20.70;97.10;;;;;;5072455;28;20213;-73
2022/05/28 01:48:04;;;;;;;5.90;2.33;;;20.60;97.00;;;;;;5073013;28;20259;-73
2022/05/28 01:50:40;;;;;;;5.77;2.37;;;20.60;97.20;;;;;;5068743;28;20642;-71
2022/05/28 01:53:11;;;;;;;4.80;2.53;;;20.60;97.40;;;;;;5045999;28;20204;-72
2022/05/28 01:55:45;;;;;;;7.07;2.30;;;20.50;97.20;;;;;;5073066;28;20212;-74
2022/05/28 01:58:11;;;;;;;6.30;2.50;;;20.60;97.20;;;;;;5055345;28;20189;-73
2022/05/28 02:00:37;;;;;;;7.23;2.40;;;20.60;97.00;;;;;;5052462;28;20182;-73
2022/05/28 02:03:05;;;;;;;8.53;2.80;;;20.60;96.80;;;;;;5051201;28;20197;-73
2022/05/28 02:05:31;;;;;;;3.83;2.07;;;20.70;96.90;;;;;;5071828;28;20194;-72
2022/05/28 02:07:58;;;;;;;6.03;2.40;;;20.70;97.00;;;;;;5067872;28;20188;-73
2022/05/28 02:10:24;;;;;;;5.13;2.23;;;20.60;97.40;;;;;;5063058;28;20714;-74
2022/05/28 02:13:22;;;;;;;10.93;2.90;;;20.70;97.00;;;;;;5067843;28;20223;-73
2022/05/28 02:16:05;;;;;;;6.63;2.40;;;20.70;96.80;;;;;;5092181;28;20186;-73
2022/05/28 02:19:01;;;;;;;8.23;3.07;;;20.70;96.80;;;;;;5086040;28;20264;-73
2022/05/28 02:21:49;;;;;;;10.17;2.33;;;20.70;96.80;;;;;;5051322;28;20190;-73
2022/05/28 02:24:37;;;;;;;9.27;2.80;;;20.70;96.80;;;;;;5065918;28;20262;-73
2022/05/28 02:27:15;;;;;;;5.20;2.43;;;20.70;96.70;;;;;;5069584;28;20232;-72
2022/05/28 02:29:42;;;;;;;8.60;2.80;;;20.60;97.00;;;;;;5071820;28;20498;-73
2022/05/28 02:32:24;;;;;;;6.67;2.53;;;20.60;97.00;;;;;;5065321;28;20267;-72
2022/05/28 02:34:52;;;;;;;13.43;3.27;;;20.60;97.00;;;;;;5087550;28;20170;-71
2022/05/28 02:37:24;;;;;;;5.63;2.53;;;20.60;97.10;;;;;;5066005;28;20196;-74
2022/05/28 02:39:52;;;;;;;6.53;2.50;;;20.60;97.50;;;;;;5071534;28;20815;-71
2022/05/28 02:42:19;;;;;;;8.67;2.60;;;20.50;97.10;;;;;;5064780;28;20202;-74
2022/05/28 02:44:45;;;;;;;5.50;2.40;;;20.50;97.10;;;;;;5087026;28;20202;-73
2022/05/28 02:47:12;;;;;;;13.23;3.17;;;20.60;97.20;;;;;;5058482;28;20195;-73
2022/05/28 02:49:38;;;;;;;9.57;2.73;;;20.60;97.30;;;;;;5070539;28;20194;-72
2022/05/28 02:52:07;;;;;;;7.40;2.43;;;20.70;97.20;;;;;;5088832;28;20208;-72
2022/05/28 02:54:34;;;;;;;9.27;2.70;;;20.70;97.40;;;;;;5043070;28;20178;-73
2022/05/28 02:57:01;;;;;;;7.53;2.20;;;20.70;97.20;;;;;;5084352;28;20190;-73
2022/05/28 02:59:27;;;;;;;8.67;2.80;;;20.70;97.30;;;;;;5072485;28;21068;-73
2022/05/28 03:01:54;;;;;;;7.57;2.40;;;20.70;97.40;;;;;;5079607;28;20199;-74
2022/05/28 03:04:21;;;;;;;9.57;2.80;;;20.70;97.10;;;;;;5077687;28;20196;-73
2022/05/28 03:06:48;;;;;;;7.60;2.70;;;20.70;97.20;;;;;;5061227;28;20194;-73
2022/05/28 03:09:16;;;;;;;9.73;3.10;;;20.70;97.20;;;;;;5082863;28;20201;-73
2022/05/28 03:11:43;;;;;;;5.17;2.47;;;20.80;97.30;;;;;;5067854;28;20196;-71
2022/05/28 03:14:10;;;;;;;7.03;2.40;;;20.80;97.40;;;;;;5094719;28;20528;-73
2022/05/28 03:16:36;;;;;;;7.50;2.63;;;20.80;97.80;;;;;;5097453;28;20189;-72
2022/05/28 03:19:03;;;;;;;9.77;2.70;;;20.80;97.70;;;;;;5073097;28;20275;-75
2022/05/28 03:21:30;;;;;;;6.83;2.47;;;20.80;97.90;;;;;;5082973;28;20769;-72
2022/05/28 03:23:57;;;;;;;5.13;2.37;;;20.80;97.80;;;;;;5069764;28;20190;-72
2022/05/28 03:26:27;;;;;;;8.13;2.67;;;20.90;97.90;;;;;;5065717;28;20265;-72
2022/05/28 03:28:56;;;;;;;12.17;3.00;;;20.90;98.00;;;;;;5060062;28;20197;-74
2022/05/28 03:31:25;;;;;;;8.77;2.57;;;20.90;98.10;;;;;;5055422;28;20194;-72
2022/05/28 03:33:52;;;;;;;5.70;2.60;;;20.90;98.40;;;;;;5070883;28;20206;-72
2022/05/28 03:36:20;;;;;;;8.33;2.83;;;20.90;98.50;;;;;;5068959;28;20186;-72
2022/05/28 03:38:46;;;;;;;6.47;2.57;;;21.00;98.60;;;;;;5087324;28;20174;-73
2022/05/28 03:41:14;;;;;;;10.43;2.50;;;21.00;98.70;;;;;;5084720;28;20837;-73
2022/05/28 03:43:40;;;;;;;6.47;2.20;;;21.00;98.70;;;;;;5053658;28;20213;-72
2022/05/28 03:46:28;;;;;;;4.57;2.30;;;21.00;98.70;;;;;;5069041;28;20189;-72
2022/05/28 03:49:01;;;;;;;7.33;2.97;;;21.10;98.90;;;;;;5067389;28;20183;-71
2022/05/28 03:51:28;;;;;;;7.87;2.77;;;21.10;99.20;;;;;;5071117;28;20317;-74
2022/05/28 03:53:54;;;;;;;4.83;2.43;;;21.10;99.40;;;;;;5083961;28;20229;-73
2022/05/28 03:56:22;;;;;;;9.47;2.67;;;21.20;99.50;;;;;;5080456;28;20174;-73
2022/05/28 03:58:50;;;;;;;8.20;2.63;;;21.20;99.60;;;;;;5048550;28;20185;-74
2022/05/28 04:01:18;;;;;;;6.67;2.70;;;21.20;99.90;;;;;;5059793;28;20336;-72
2022/05/28 04:03:44;;;;;;;6.67;2.27;;;21.30;99.90;;;;;;5091232;28;20189;-71
2022/05/28 04:06:12;;;;;;;7.43;2.50;;;21.30;99.90;;;;;;5069984;28;20698;-72
2022/05/28 04:08:42;;;;;;;13.73;2.77;;;21.40;99.90;;;;;;5091729;28;20193;-73
2022/05/28 04:11:09;;;;;;;6.77;2.77;;;21.40;99.90;;;;;;5070476;28;20269;-75
2022/05/28 04:13:35;;;;;;;7.43;2.60;;;21.50;99.90;;;;;;5087690;28;20210;-71
2022/05/28 04:16:03;;;;;;;6.90;2.43;;;21.50;99.90;;;;;;5069745;28;20184;-73
2022/05/28 04:18:29;;;;;;;11.30;2.80;;;21.50;99.90;;;;;;5094554;28;20201;-75
2022/05/28 04:20:55;;;;;;;8.70;2.50;;;21.60;99.90;;;;;;5065482;28;20185;-75
2022/05/28 04:23:22;;;;;;;4.87;2.43;;;21.60;99.90;;;;;;5069467;28;20219;-72
2022/05/28 04:25:49;;;;;;;5.73;2.40;;;21.70;99.90;;;;;;5084775;28;20919;-73
2022/05/28 04:28:15;;;;;;;7.47;2.40;;;21.90;99.90;;;;;;5073956;28;20215;-73
2022/05/28 04:30:41;;;;;;;5.63;2.60;;;21.90;99.90;;;;;;5074242;28;20186;-74
2022/05/28 04:33:08;;;;;;;8.10;2.97;;;22.00;99.90;;;;;;5048582;28;20551;-73
2022/05/28 04:35:34;;;;;;;7.80;2.30;;;22.10;99.90;;;;;;5094721;28;20573;-73
2022/05/28 04:38:00;;;;;;;9.53;2.40;;;22.10;99.90;;;;;;5061170;28;20515;-74
2022/05/28 04:40:27;;;;;;;6.10;2.30;;;22.20;99.90;;;;;;5085791;28;20183;-73
2022/05/28 04:42:53;;;;;;;8.67;2.33;;;22.30;99.90;;;;;;5098702;28;20198;-73
2022/05/28 04:45:19;;;;;;;7.33;2.40;;;22.30;99.90;;;;;;5066059;28;20186;-73
2022/05/28 04:47:46;;;;;;;10.53;2.47;;;22.40;99.90;;;;;;5091138;28;20185;-73
2022/05/28 04:50:13;;;;;;;10.30;2.90;;;22.40;99.90;;;;;;5070152;28;20240;-74
2022/05/28 04:52:39;;;;;;;7.60;2.42;;;22.50;99.90;;;;;;5077480;28;20317;-74
2022/05/28 04:55:15;;;;;;;7.53;2.70;;;22.60;99.90;;;;;;5096014;28;20272;-74
2022/05/28 04:57:46;;;;;;;9.98;3.22;;;22.60;99.90;;;;;;5062200;28;20280;-74
2022/05/28 05:00:18;;;;;;;6.03;2.30;;;22.60;99.90;;;;;;5070396;28;20190;-73
2022/05/28 05:02:44;;;;;;;11.77;2.90;;;22.70;99.90;;;;;;5072655;28;20653;-75
2022/05/28 05:05:11;;;;;;;7.57;2.93;;;22.80;99.90;;;;;;5074329;28;20637;-73
2022/05/28 05:07:37;;;;;;;10.80;2.72;;;22.80;99.90;;;;;;5070441;28;20213;-73
2022/05/28 05:10:05;;;;;;;7.82;2.95;;;22.80;99.90;;;;;;5073892;28;20185;-72
2022/05/28 05:12:31;;;;;;;11.77;3.15;;;22.70;99.90;;;;;;5089599;28;20220;-74
2022/05/28 05:14:57;;;;;;;7.78;2.45;;;22.70;99.90;;;;;;5071640;28;20192;-73
2022/05/28 05:17:24;;;;;;;5.68;2.50;;;22.70;99.90;;;;;;5081971;28;20317;-73
2022/05/28 05:19:53;;;;;;;16.05;2.67;;;22.80;99.90;;;;;;5066870;28;20201;-71
2022/05/28 05:22:21;;;;;;;7.80;2.65;;;22.80;99.90;;;;;;5082955;28;20312;-72
2022/05/28 05:24:47;;;;;;;9.10;2.73;;;22.90;99.90;;;;;;5071820;28;20186;-74
2022/05/28 05:27:14;;;;;;;9.65;3.20;;;23.00;99.90;;;;;;5084751;28;20630;-71
2022/05/28 05:29:40;;;;;;;7.10;2.83;;;23.00;99.90;;;;;;5070826;28;20197;-73
2022/05/28 05:32:08;;;;;;;6.47;2.50;;;23.00;99.90;;;;;;5079747;28;20197;-73
2022/05/28 05:34:34;;;;;;;10.03;2.70;;;23.10;99.90;;;;;;5092376;28;20183;-73
2022/05/28 05:37:01;;;;;;;8.40;2.57;;;23.10;99.90;;;;;;5071465;28;20717;-73
2022/05/28 05:39:27;;;;;;;8.23;2.83;;;23.10;99.90;;;;;;5072985;28;20210;-72
2022/05/28 05:41:53;;;;;;;7.97;2.65;;;23.10;99.90;;;;;;5092946;28;20178;-71
2022/05/28 05:44:20;;;;;;;5.75;2.85;;;23.10;99.90;;;;;;5078194;28;20200;-71
2022/05/28 05:46:46;;;;;;;6.90;2.97;;;23.20;99.90;;;;;;5092596;28;20281;-72
2022/05/28 05:49:13;;;;;;;9.73;2.80;;;23.30;99.90;;;;;;5054852;28;20194;-73
2022/05/28 05:51:46;;;;;;;12.38;3.20;;;23.30;99.90;;;;;;5093602;28;20272;-73
2022/05/28 05:54:15;;;;;;;9.82;2.70;;;23.30;99.90;;;;;;5066858;28;20182;-74
2022/05/28 05:56:42;;;;;;;10.38;2.72;;;23.40;99.90;;;;;;5069622;28;20646;-73
2022/05/28 05:59:09;;;;;;;6.15;3.00;;;23.40;99.90;;;;;;5087963;27;20270;-73
2022/05/28 06:01:35;;;;;;;8.35;2.42;;;23.60;99.90;;;;;;5083344;28;20197;-73
2022/05/28 06:04:03;;;;;;;9.05;2.60;;;23.60;99.90;;;;;;5073244;28;20174;-77
2022/05/28 06:06:30;;;;;;;14.15;3.28;;;23.70;99.90;;;;;;5083194;28;20205;-73
2022/05/28 06:08:56;;;;;;;9.93;3.00;;;23.80;99.50;;;;;;5077809;28;20209;-73
2022/05/28 06:11:26;;;;;;;9.38;2.72;;;23.90;98.70;;;;;;5069699;28;20192;-73
2022/05/28 06:13:53;;;;;;;8.38;2.92;;;24.00;98.90;;;;;;5056875;28;20217;-72
2022/05/28 06:16:19;;;;;;;10.10;2.90;;;24.00;99.10;;;;;;5076235;28;20642;-75
2022/05/28 06:18:46;;;;;;;9.20;2.72;;;24.10;99.50;;;;;;5066218;28;20186;-74
2022/05/28 06:21:12;;;;;;;8.23;2.55;;;24.20;99.60;;;;;;5061539;28;20190;-73
2022/05/28 06:23:41;;;;;;;7.47;3.10;;;24.30;99.90;;;;;;5067464;28;20722;-74
2022/05/28 06:26:09;;;;;;;11.10;2.97;;;24.40;99.40;;;;;;5085566;28;20591;-74
2022/05/28 06:28:36;;;;;;;14.43;2.88;;;24.50;98.90;;;;;;5054662;28;20533;-72
2022/05/28 06:31:06;;;;;;;9.40;2.83;;;24.70;98.70;;;;;;5078458;28;20186;-73
2022/05/28 06:33:35;;;;;;;10.23;3.15;;;24.90;99.10;;;;;;5076996;28;20241;-72
2022/05/28 06:36:05;;;;;;;11.20;2.78;;;25.00;99.20;;;;;;5067280;28;20310;-74
2022/05/28 06:38:33;;;;;;;10.27;2.75;;;25.10;98.70;;;;;;5101313;28;20186;-73
2022/05/28 06:41:00;;;;;;;8.63;2.90;;;25.20;98.90;;;;;;5073238;28;20644;-74
2022/05/28 06:43:27;;;;;;;6.20;2.72;;;25.20;98.50;;;;;;5075190;28;20197;-72
2022/05/28 06:45:55;;;;;;;6.28;2.67;;;25.30;97.80;;;;;;5072090;28;20190;-72
2022/05/28 06:48:21;;;;;;;12.43;3.33;;;25.30;97.80;;;;;;5059029;28;20212;-73
2022/05/28 06:51:04;;;;;;;7.32;2.40;;;25.40;98.30;;;;;;5094506;28;20194;-73
2022/05/28 06:53:41;;;;;;;16.08;2.90;;;25.40;98.40;;;;;;5082116;28;20230;-72
2022/05/28 06:56:10;;;;;;;9.38;2.85;;;25.50;97.00;;;;;;5057516;28;20306;-73
2022/05/28 06:58:38;;;;;;;10.82;2.83;;;25.50;97.50;;;;;;5101854;28;20185;-73
2022/05/28 07:01:07;;;;;;;7.18;2.50;;;25.60;97.20;;;;;;5060945;28;20186;-72
2022/05/28 07:03:34;;;;;;;11.60;2.70;;;25.80;96.50;;;;;;5058646;28;20186;-72
2022/05/28 07:06:01;;;;;;;6.63;2.53;;;25.90;96.90;;;;;;5069338;28;20186;-72
2022/05/28 07:08:27;;;;;;;6.90;2.58;;;26.00;96.60;;;;;;5059073;28;20190;-73
2022/05/28 07:11:00;;;;;;;11.13;2.33;;;26.00;96.50;;;;;;5072720;28;20701;-74
2022/05/28 07:13:29;;;;;;;7.90;3.10;;;26.10;96.10;;;;;;5060652;28;20225;-73
2022/05/28 07:15:56;;;;;;;6.05;2.50;;;26.30;96.00;;;;;;5068403;28;20539;-72
2022/05/28 07:18:22;;;;;;;12.00;3.03;;;26.40;96.20;;;;;;5079177;28;20605;-72
2022/05/28 07:20:51;;;;;;;7.95;2.90;;;26.50;96.10;;;;;;5086907;28;20174;-74
2022/05/28 07:23:27;;;;;;;9.02;2.75;;;26.70;95.60;;;;;;5090654;28;20202;-72
2022/05/28 07:26:08;;;;;;;5.50;2.60;;;26.80;95.90;;;;;;5092294;28;20499;-73
2022/05/28 07:28:39;;;;;;;10.90;2.80;;;26.80;95.70;;;;;;5081736;28;20185;-73
2022/05/28 07:31:09;;;;;;;8.80;2.90;;;26.90;96.20;;;;;;5071357;28;20198;-74
2022/05/28 07:33:40;;;;;;;8.35;2.55;;;26.90;96.00;;;;;;5066161;28;20251;-72
2022/05/28 07:36:10;;;;;;;6.72;2.70;;;27.00;95.50;;;;;;5077129;28;20192;-72
2022/05/28 07:38:37;;;;;;;13.20;2.85;;;27.10;95.70;;;;;;5079600;28;20268;-72
2022/05/28 07:41:12;;;;;;;13.13;3.10;;;27.20;95.80;;;;;;5081990;28;20189;-72
2022/05/28 07:43:40;;;;;;;17.67;2.53;;;27.30;95.40;;;;;;5075640;28;20753;-74
2022/05/28 07:46:16;;;;;;;12.95;2.92;;;27.40;95.30;;;;;;5057803;28;20669;-72
2022/05/28 07:48:43;;;;;;;16.25;3.40;;;27.50;94.90;;;;;;5071306;28;20835;-73
2022/05/28 07:51:10;;;;;;;8.15;2.15;;;27.60;94.40;;;;;;5078483;28;20262;-73
2022/05/28 07:53:37;;;;;;;9.35;2.53;;;27.70;93.60;;;;;;5075263;28;20572;-73
2022/05/28 07:56:05;;;;;;;7.10;2.35;;;27.80;94.70;;;;;;5079060;28;20183;-74
2022/05/28 07:58:32;;;;;;;6.07;2.35;;;27.80;94.80;;;;;;5042985;28;20186;-74
2022/05/28 08:00:59;;;;;;;12.02;2.53;;;27.90;94.40;;;;;;5087591;28;20182;-73
2022/05/28 08:03:27;;;;;;;5.53;2.10;;;28.00;94.50;;;;;;5060938;28;20185;-73
2022/05/28 08:05:55;;;;;;;12.00;3.00;;;28.10;93.40;;;;;;5057065;28;20190;-73
2022/05/28 08:08:25;;;;;;;6.78;2.10;;;28.20;94.00;;;;;;5073195;28;20250;-73
2022/05/28 08:10:52;;;;;;;7.82;1.98;;;28.40;92.30;;;;;;5072333;28;20651;-73
2022/05/28 08:13:23;;;;;;;6.53;1.90;;;28.50;92.20;;;;;;5087173;28;20300;-73
2022/05/28 08:15:54;;;;;;;6.93;1.92;;;28.50;92.30;;;;;;5054711;28;20189;-72
2022/05/28 08:18:24;;;;;;;5.35;2.33;;;28.60;92.20;;;;;;5060896;28;20216;-74
2022/05/28 08:23:42;;;;;;;4.40;1.92;;;28.80;92.00;;;;;;5073211;28;20324;-73
2022/05/28 08:26:13;;;;;;;6.95;2.10;;;28.90;91.70;;;;;;5090902;28;20215;-73
2022/05/28 08:28:44;;;;;;;9.68;2.00;;;29.00;91.00;;;;;;5095315;28;20946;-73
2022/05/28 08:31:12;;;;;;;7.10;2.15;;;29.10;91.50;;;;;;5056777;28;20190;-75
2022/05/28 08:33:39;;;;;;;5.47;1.98;;;29.20;92.60;;;;;;5085543;28;20217;-73
2022/05/28 08:36:06;;;;;;;6.90;1.98;;;29.30;92.90;;;;;;5090348;28;20209;-77
2022/05/28 08:38:33;;;;;;;6.38;1.95;;;29.40;92.20;;;;;;5067513;28;20576;-74
2022/05/28 08:41:15;;;;;;;6.43;1.88;;;29.40;91.10;;;;;;5064449;28;20665;-72
2022/05/28 08:44:20;;;;;;;5.75;2.17;;;29.40;92.30;;;;;;5088125;28;20880;-72
2022/05/28 08:46:56;;;;;;;7.20;2.13;;;29.70;91.30;;;;;;5085106;28;20202;-74
2022/05/28 08:49:31;;;;;;;6.03;2.28;;;29.70;92.10;;;;;;5063595;28;20245;-74
2022/05/28 08:52:53;;;;;;;8.02;2.03;;;29.90;92.90;;;;;;5090978;28;20244;-74
2022/05/28 08:55:26;;;;;;;7.03;2.25;;;29.90;91.20;;;;;;5089898;28;20178;-73
2022/05/28 08:58:04;;;;;;;7.00;2.13;;;30.10;92.90;;;;;;5080097;28;20251;-71
2022/05/28 09:00:46;;;;;;;8.20;2.38;;;30.20;92.60;;;;;;5075448;28;20181;-73
2022/05/28 09:03:40;;;;;;;5.88;2.50;;;30.30;93.80;;;;;;5055465;28;20190;-72
2022/05/28 09:06:13;;;;;;;5.07;2.13;;;30.30;93.00;;;;;;5086155;28;20194;-73
2022/05/28 09:08:46;;;;;;;9.57;2.15;;;30.30;91.00;;;;;;5054402;28;20193;-73
2022/05/28 09:11:39;;;;;;;5.75;2.20;;;30.40;91.40;;;;;;5086215;28;20194;-74
2022/05/28 09:14:22;;;;;;;5.32;2.20;;;30.60;90.50;;;;;;5088457;28;20240;-72
2022/05/28 09:16:53;;;;;;;8.82;2.33;;;30.70;91.50;;;;;;5057545;28;20186;-72
2022/05/28 09:19:38;;;;;;;5.82;2.00;;;30.70;91.90;;;;;;5072291;28;20660;-73
2022/05/28 09:22:05;;;;;;;7.00;2.38;;;30.80;91.60;;;;;;5085831;28;20194;-73
2022/05/28 09:24:33;;;;;;;7.15;2.67;;;30.80;91.80;;;;;;5075321;28;20213;-74
2022/05/28 09:27:40;;;;;;;7.32;2.50;;;30.90;93.20;;;;;;5074118;28;20273;-72
2022/05/28 09:30:47;;;;;;;10.40;2.35;;;31.00;93.60;;;;;;5070496;28;20705;-74
2022/05/28 09:33:33;;;;;;;10.52;2.72;;;31.00;93.60;;;;;;5079324;28;20208;-73
2022/05/28 09:36:11;;;;;;;8.07;2.97;;;31.00;94.50;;;;;;5080498;28;20186;-74
2022/05/28 09:39:01;;;;;;;10.75;3.22;;;31.00;94.90;;;;;;5085603;28;20190;-72
2022/05/28 09:41:55;;;;;;;5.93;2.50;;;31.10;95.00;;;;;;5098752;28;20182;-74
2022/05/28 09:44:42;;;;;;;10.63;3.00;;;31.20;94.80;;;;;;5081311;28;20186;-72
2022/05/28 09:47:13;;;;;;;7.53;2.97;;;31.30;97.20;;;;;;5090489;28;20182;-75
2022/05/28 09:49:51;;;;;;;10.27;3.20;;;31.30;98.30;;;;;;5053173;28;20186;-73
2022/05/28 09:52:34;;;;;;;12.10;3.45;;;31.30;98.70;;;;;;5068058;28;20215;-74
2022/05/28 09:55:19;;;;;;;7.60;3.25;;;31.30;99.30;;;;;;5091457;28;20181;-74
2022/05/28 09:58:06;;;;;;;9.30;3.03;;;31.30;99.90;;;;;;5070026;28;20209;-75
2022/05/28 10:00:32;;;;;;;11.00;3.50;;;31.30;99.90;;;;;;5074378;28;20197;-73
2022/05/28 10:05:58;;;;;;;10.60;3.35;;;31.20;99.90;;;;;;5065438;28;20197;-73
2022/05/28 10:08:33;;;;;;;10.25;3.80;;;31.10;99.90;;;;;;5095822;27;20250;-75
2022/05/28 10:11:06;;;;;;;7.85;3.05;;;31.20;99.90;;;;;;5085447;28;20228;-75
2022/05/28 10:13:52;;;;;;;8.65;3.55;;;31.20;99.90;;;;;;5050973;28;20570;-74
2022/05/28 10:16:31;;;;;;;10.68;3.53;;;31.30;99.90;;;;;;5055993;28;20182;-73
2022/05/28 10:18:59;;;;;;;11.80;3.33;;;31.20;99.90;;;;;;5072350;28;20193;-76
2022/05/28 10:21:32;;;;;;;9.68;3.25;;;31.20;99.90;;;;;;5061291;28;20178;-74
2022/05/28 10:24:04;;;;;;;9.45;3.35;;;31.20;99.90;;;;;;5103909;28;20200;-73
2022/05/28 10:26:40;;;;;;;9.35;3.15;;;31.10;99.90;;;;;;5052610;28;20883;-72
2022/05/28 10:29:47;;;;;;;9.68;3.75;;;31.20;99.90;;;;;;5050652;28;20178;-72
2022/05/28 10:32:27;;;;;;;7.80;2.90;;;31.20;99.90;;;;;;5084275;28;20194;-75
2022/05/28 10:35:23;;;;;;;9.45;3.08;;;31.10;99.90;;;;;;5055788;28;20178;-75
2022/05/28 10:37:51;;;;;;;9.65;3.20;;;31.10;99.60;;;;;;5048141;28;20186;-76
2022/05/28 10:40:27;;;;;;;7.75;2.92;;;31.10;99.10;;;;;;5068582;28;20178;-75
2022/05/28 10:43:02;;;;;;;12.85;3.13;;;31.00;99.60;;;;;;5071628;28;20983;-73
2022/05/28 10:45:47;;;;;;;8.88;3.13;;;31.00;98.60;;;;;;5090712;28;20204;-75
2022/05/28 10:48:55;;;;;;;9.38;2.88;;;31.00;98.70;;;;;;5090266;28;20189;-75
2022/05/28 10:51:28;;;;;;;10.43;3.13;;;31.00;98.60;;;;;;5050751;28;20209;-75
2022/05/28 10:54:19;;;;;;;10.02;2.80;;;31.00;98.10;;;;;;5088308;28;20213;-77
2022/05/28 10:57:18;;;;;;;6.95;3.20;;;31.00;98.30;;;;;;5074696;28;20282;-75
2022/05/28 11:00:07;;;;;;;11.80;3.22;;;31.00;98.60;;;;;;5068101;28;20182;-75
2022/05/28 11:02:39;;;;;;;9.43;3.05;;;31.00;98.10;;;;;;5062633;28;20198;-74
2022/05/28 11:05:56;;;;;;;6.90;2.95;;;31.00;99.30;;;;;;5071617;28;20174;-76
2022/05/28 11:09:14;;;;;;;9.18;3.35;;;31.10;98.60;;;;;;5031316;28;20198;-73
2022/05/28 11:12:14;;;;;;;13.80;3.85;;;31.10;99.60;;;;;;5084950;28;20186;-72
2022/05/28 11:15:13;;;;;;;9.23;3.17;;;31.00;99.60;;;;;;5092678;28;20646;-76
2022/05/28 11:18:17;;;;;;;12.75;3.58;;;31.00;99.80;;;;;;5084962;28;20190;-76
2022/05/28 11:21:16;;;;;;;8.15;3.45;;;30.90;99.90;;;;;;5067599;28;20508;-73
2022/05/28 11:24:28;;;;;;;13.02;3.83;;;30.80;99.90;;;;;;5079274;28;20713;-74
2022/05/28 11:27:32;;;;;;;9.13;3.17;;;30.80;99.90;;;;;;5076142;28;20185;-72
2022/05/28 11:30:21;;;;;;;13.32;3.92;;;30.90;99.90;;;;;;5070806;28;20177;-74
2022/05/28 11:33:08;;;;;;;8.95;3.38;;;30.80;99.90;;;;;;5069553;28;20247;-76
2022/05/28 11:35:42;;;;;;;8.38;3.10;;;30.80;99.90;;;;;;5089655;28;20178;-75
2022/05/28 11:38:43;;;;;;;10.30;3.45;;;30.70;99.90;;;;;;5066999;28;20732;-75
2022/05/28 11:41:35;;;;;;;8.55;3.50;;;30.70;99.90;;;;;;5093482;28;20178;-73
2022/05/28 11:44:52;;;;;;;12.57;3.22;;;30.70;99.90;;;;;;5070812;28;20276;-75
2022/05/28 11:47:54;;;;;;;9.25;3.70;;;30.60;99.90;;;;;;5009599;28;20241;-76
2022/05/28 11:53:44;;;;;;;9.82;3.70;;;30.60;99.90;;;;;;5078729;28;20535;-74
2022/05/28 11:56:30;;;;;;;9.70;3.60;;;30.70;99.90;;;;;;5054148;28;20181;-73
2022/05/28 11:59:13;;;;;;;7.22;3.60;;;30.50;99.90;;;;;;5053830;28;20327;-76
2022/05/28 12:02:11;;;;;;;13.52;4.10;;;30.60;99.90;;;;;;5086904;28;20210;-73
2022/05/28 12:04:44;;;;;;;9.50;3.40;;;30.50;99.90;;;;;;5060915;28;20276;-76
2022/05/28 12:07:36;;;;;;;10.40;3.72;;;30.40;99.90;;;;;;5069509;28;20293;-76
2022/05/28 12:10:12;;;;;;;17.30;4.05;;;30.30;99.90;;;;;;5071417;28;21038;-75
2022/05/28 12:12:59;;;;;;;9.70;3.92;;;30.20;99.90;;;;;;5050737;28;20228;-75
2022/05/28 12:15:31;;;;;;;10.50;3.90;;;30.20;99.90;;;;;;5036807;28;20756;-73
2022/05/28 12:18:28;;;;;;;12.77;3.80;;;30.20;99.90;;;;;;5062584;28;20655;-76
2022/05/28 12:20:59;;;;;;;9.80;3.88;;;30.20;99.90;;;;;;5048274;28;20654;-73
2022/05/28 12:23:41;;;;;;;9.52;3.65;;;30.00;99.90;;;;;;5068978;28;20202;-73
2022/05/28 12:26:46;;;;;;;8.23;3.88;;;30.00;99.90;;;;;;5069460;28;20256;-77
2022/05/28 12:29:34;;;;;;;11.27;3.75;;;30.00;99.90;;;;;;5064761;28;20903;-76
2022/05/28 12:32:18;;;;;;;16.17;3.90;;;30.00;99.90;;;;;;5069640;28;20628;-75
2022/05/28 12:35:01;;;;;;;8.13;3.90;;;30.00;99.90;;;;;;5089180;28;20534;-77
2022/05/28 12:37:37;;;;;;;10.10;4.10;;;30.10;99.90;;;;;;5088289;28;20602;-77
2022/05/28 12:40:39;;;;;;;8.95;3.60;;;30.20;99.90;;;;;;5069501;28;20668;-73
2022/05/28 12:43:39;;;;;;;11.82;4.13;;;30.20;99.90;;;;;;5062616;28;20193;-74
2022/05/28 12:46:35;;;;;;;10.70;3.70;;;30.00;99.90;;;;;;5034475;28;20205;-75
2022/05/28 12:49:11;;;;;;;10.93;3.72;;;29.90;99.90;;;;;;5049951;28;20214;-74
2022/05/28 12:52:01;;;;;;;13.65;4.43;;;29.80;99.90;;;;;;5083915;28;20197;-75
2022/05/28 12:54:32;;;;;;;14.98;4.63;;;29.90;99.90;;;;;;5084052;28;20719;-75
2022/05/28 12:57:30;;;;;;;10.93;4.05;;;29.90;99.90;;;;;;5060687;28;20197;-76
2022/05/28 13:00:25;;;;;;;10.60;3.97;;;29.90;99.90;;;;;;5016802;28;20906;-74
2022/05/28 13:02:55;;;;;;;11.75;4.38;;;30.00;99.90;;;;;;5055016;28;20193;-74
2022/05/28 13:05:47;;;;;;;12.00;4.10;;;30.00;99.90;;;;;;5088103;28;20178;-75
2022/05/28 13:08:25;;;;;;;13.45;3.92;;;29.90;99.90;;;;;;5052805;28;20198;-74
2022/05/28 13:11:05;;;;;;;12.10;4.13;;;29.80;99.90;;;;;;5068262;28;20182;-74
2022/05/28 13:13:59;;;;;;;14.55;4.30;;;29.70;99.90;;;;;;5063444;28;20304;-73
2022/05/28 13:17:16;;;;;;;13.80;4.20;;;29.60;99.90;;;;;;5065015;28;20741;-74
2022/05/28 13:20:00;;;;;;;10.93;3.63;;;29.50;99.90;;;;;;5076548;28;20235;-74
2022/05/28 13:22:53;;;;;;;9.10;4.15;;;29.40;99.90;;;;;;5055588;28;20196;-74
2022/05/28 13:25:41;;;;;;;10.23;3.75;;;29.40;99.90;;;;;;5072253;28;20205;-73
2022/05/28 13:28:28;;;;;;;11.13;3.88;;;29.50;99.90;;;;;;5071530;28;20178;-76
2022/05/28 13:31:07;;;;;;;13.43;3.60;;;29.60;99.90;;;;;;5061466;28;20712;-76
2022/05/28 13:33:39;;;;;;;17.40;3.97;;;29.60;99.90;;;;;;5073625;28;20819;-73
2022/05/28 13:36:16;;;;;;;12.07;4.53;;;29.60;99.90;;;;;;5052191;28;20183;-75